createdAt,value
2023-01-20T00:00:31.122Z,41.27
2023-01-20T00:02:58.800Z,39.83
2023-01-20T00:05:26.229Z,29.20
2023-01-20T00:07:53.575Z,38.77
2023-01-20T00:10:20.767Z,37.97
2023-01-20T00:12:47.890Z,40.03
2023-01-20T00:15:15.418Z,47.87
2023-01-20T00:17:42.813Z,51.37
2023-01-20T00:20:10.445Z,49.37
2023-01-20T00:22:42.243Z,53.77
2023-01-20T00:25:12.689Z,54.97
2023-01-20T00:27:40.025Z,49.10
2023-01-20T00:30:07.525Z,56.43
2023-01-20T00:32:39.224Z,56.03
2023-01-20T00:35:07.682Z,56.07
2023-01-20T00:37:34.840Z,59.20
2023-01-20T00:40:01.982Z,48.17
2023-01-20T00:42:29.135Z,52.13
2023-01-20T00:44:56.364Z,48.27
2023-01-20T00:47:23.643Z,45.93
2023-01-20T00:49:50.833Z,44.50
2023-01-20T00:52:18.947Z,48.23
2023-01-20T00:54:46.412Z,48.10
2023-01-20T00:57:13.552Z,52.60
2023-01-20T00:59:40.736Z,44.50
2023-01-20T01:02:07.971Z,57.77
2023-01-20T01:04:35.264Z,64.80
2023-01-20T01:07:02.531Z,51.50
2023-01-20T01:09:29.696Z,67.03
2023-01-20T01:11:56.827Z,45.90
2023-01-20T01:14:23.940Z,57.93
2023-01-20T01:16:51.070Z,43.47
2023-01-20T01:19:19.107Z,48.10
2023-01-20T01:21:46.308Z,40.47
2023-01-20T01:24:13.482Z,44.33
2023-01-20T01:26:40.614Z,42.10
2023-01-20T01:29:07.747Z,47.73
2023-01-20T01:31:34.952Z,46.57
2023-01-20T01:34:02.191Z,43.37
2023-01-20T01:36:29.372Z,51.77
2023-01-20T01:38:58.898Z,47.10
2023-01-20T01:41:26.627Z,50.03
2023-01-20T01:44:20.934Z,54.77
2023-01-20T01:46:48.359Z,57.97
2023-01-20T01:49:15.536Z,46.47
2023-01-20T01:51:45.489Z,55.13
2023-01-20T01:54:15.510Z,59.33
2023-01-20T01:56:43.381Z,62.17
2023-01-20T01:59:12.503Z,59.13
2023-01-20T02:01:43.354Z,56.87
2023-01-20T02:04:15.396Z,68.77
2023-01-20T02:06:51.686Z,62.90
2023-01-20T02:09:19.833Z,56.77
2023-01-20T02:11:49.036Z,62.40
2023-01-20T02:14:17.436Z,63.23
2023-01-20T02:16:50.516Z,60.57
2023-01-20T02:19:17.806Z,62.73
2023-01-20T02:22:03.890Z,52.07
2023-01-20T02:24:49.883Z,66.70
2023-01-20T02:27:35.968Z,60.63
2023-01-20T02:30:15.451Z,67.70
2023-01-20T02:32:42.707Z,57.30
2023-01-20T02:35:23.199Z,59.30
2023-01-20T02:37:50.294Z,55.40
2023-01-20T02:40:20.667Z,53.47
2023-01-20T02:42:54.294Z,50.33
2023-01-20T02:45:44.535Z,43.53
2023-01-20T02:48:11.776Z,46.73
2023-01-20T02:50:46.840Z,47.67
2023-01-20T02:53:15.235Z,55.07
2023-01-20T02:55:47.675Z,48.43
2023-01-20T02:58:17.522Z,55.07
2023-01-20T03:01:04.672Z,51.83
2023-01-20T03:03:34.676Z,64.00
2023-01-20T03:06:04.027Z,50.00
2023-01-20T03:08:32.571Z,58.43
2023-01-20T03:11:03.158Z,40.23
2023-01-20T03:13:36.415Z,48.00
2023-01-20T03:16:05.746Z,56.33
2023-01-20T03:18:33.486Z,39.67
2023-01-20T03:21:01.283Z,37.67
2023-01-20T03:23:29.140Z,42.57
2023-01-20T03:25:56.560Z,47.20
2023-01-20T03:28:23.729Z,52.53
2023-01-20T03:30:51.146Z,47.10
2023-01-20T03:33:18.467Z,43.00
2023-01-20T03:35:45.729Z,48.57
2023-01-20T03:38:12.925Z,48.07
2023-01-20T03:40:52.567Z,49.40
2023-01-20T03:43:31.852Z,40.33
2023-01-20T03:46:05.931Z,46.17
2023-01-20T03:48:39.766Z,45.63
2023-01-20T03:51:11.533Z,47.57
2023-01-20T03:53:47.655Z,44.00
2023-01-20T03:56:27.088Z,44.13
2023-01-20T03:58:55.374Z,44.37
2023-01-20T04:01:25.682Z,42.47
2023-01-20T04:03:54.326Z,29.93
2023-01-20T04:06:22.579Z,30.50
2023-01-20T04:08:52.839Z,36.40
2023-01-20T04:11:20.323Z,24.83
2023-01-20T04:13:47.408Z,36.17
2023-01-20T04:16:16.620Z,38.77
2023-01-20T04:18:46.090Z,41.40
2023-01-20T04:21:20.612Z,40.80
2023-01-20T04:23:53.083Z,37.80
2023-01-20T04:26:20.195Z,36.13
2023-01-20T04:28:47.401Z,44.00
2023-01-20T04:31:29.214Z,45.97
2023-01-20T04:33:57.416Z,30.80
2023-01-20T04:36:24.536Z,38.63
2023-01-20T04:38:51.675Z,38.47
2023-01-20T04:41:19.007Z,35.70
2023-01-20T04:43:46.904Z,35.73
2023-01-20T04:46:14.766Z,39.40
2023-01-20T04:48:41.941Z,39.07
2023-01-20T04:51:09.266Z,37.13
2023-01-20T04:53:36.404Z,38.50
2023-01-20T04:56:03.514Z,32.17
2023-01-20T04:58:30.624Z,35.83
2023-01-20T05:00:57.720Z,32.13
2023-01-20T05:03:24.841Z,35.17
2023-01-20T05:05:54.989Z,38.30
2023-01-20T05:08:22.170Z,37.70
2023-01-20T05:10:49.573Z,36.83
2023-01-20T05:13:16.736Z,37.80
2023-01-20T05:15:44.606Z,34.73
2023-01-20T05:18:11.825Z,30.33
2023-01-20T05:20:39.046Z,30.80
2023-01-20T05:23:07.055Z,34.13
2023-01-20T05:25:34.168Z,34.63
2023-01-20T05:28:01.276Z,30.47
2023-01-20T05:30:28.539Z,43.80
2023-01-20T05:32:55.800Z,31.77
2023-01-20T05:35:22.980Z,41.73
2023-01-20T05:37:53.330Z,36.13
2023-01-20T05:40:20.638Z,31.27
2023-01-20T05:42:47.845Z,29.47
2023-01-20T05:45:15.288Z,29.53
2023-01-20T05:47:42.579Z,35.43
2023-01-20T05:50:10.031Z,35.83
2023-01-20T05:52:37.177Z,36.00
2023-01-20T05:55:05.159Z,37.40
2023-01-20T05:57:32.319Z,37.80
2023-01-20T05:59:59.462Z,39.87
2023-01-20T06:02:26.928Z,40.50
2023-01-20T06:04:56.031Z,35.47
2023-01-20T06:07:23.529Z,33.67
2023-01-20T06:09:50.660Z,40.93
2023-01-20T06:12:17.847Z,35.07
2023-01-20T06:14:45.019Z,34.90
2023-01-20T06:17:12.179Z,35.70
2023-01-20T06:19:39.428Z,35.00
2023-01-20T06:22:08.291Z,31.40
2023-01-20T06:24:35.388Z,38.97
2023-01-20T06:27:02.722Z,39.73
2023-01-20T06:29:31.093Z,35.00
2023-01-20T06:31:58.338Z,30.73
2023-01-20T06:34:25.426Z,32.40
2023-01-20T06:36:52.549Z,41.93
2023-01-20T06:39:19.744Z,34.87
2023-01-20T06:41:46.891Z,30.87
2023-01-20T06:44:14.201Z,31.77
2023-01-20T06:46:41.411Z,36.37
2023-01-20T06:49:08.619Z,32.70
2023-01-20T06:51:35.709Z,32.53
2023-01-20T06:54:02.876Z,32.27
2023-01-20T06:56:30.036Z,36.63
2023-01-20T06:58:57.524Z,25.50
2023-01-20T07:01:25.972Z,30.37
2023-01-20T07:03:53.536Z,32.40
2023-01-20T07:06:27.666Z,30.07
2023-01-20T07:08:57.218Z,31.63
2023-01-20T07:11:29.040Z,37.63
2023-01-20T07:13:56.284Z,28.60
2023-01-20T07:16:23.498Z,30.30
2023-01-20T07:18:51.828Z,28.97
2023-01-20T07:21:19.215Z,31.67
2023-01-20T07:23:46.567Z,31.07
2023-01-20T07:26:17.877Z,35.77
2023-01-20T07:28:45.349Z,33.47
2023-01-20T07:31:16.946Z,38.50
2023-01-20T07:33:44.094Z,27.63
2023-01-20T07:36:12.261Z,32.47
2023-01-20T07:38:39.464Z,31.03
2023-01-20T07:41:08.467Z,32.63
2023-01-20T07:43:35.592Z,30.20
2023-01-20T07:46:04.813Z,31.57
2023-01-20T07:48:32.711Z,31.10
2023-01-20T07:51:05.724Z,34.50
2023-01-20T07:53:34.359Z,32.93
2023-01-20T07:56:02.011Z,35.23
2023-01-20T07:58:30.193Z,32.73
2023-01-20T08:00:57.729Z,34.07
2023-01-20T08:03:27.359Z,30.47
2023-01-20T08:05:54.717Z,34.90
2023-01-20T08:08:21.855Z,32.20
2023-01-20T08:10:54.174Z,31.23
2023-01-20T08:13:21.458Z,33.57
2023-01-20T08:15:48.760Z,36.33
2023-01-20T08:18:16.016Z,36.83
2023-01-20T08:20:43.288Z,29.50
2023-01-20T08:23:10.473Z,28.40
2023-01-20T08:25:37.621Z,31.77
2023-01-20T08:28:05.626Z,29.03
2023-01-20T08:30:32.873Z,33.97
2023-01-20T08:33:00.042Z,35.67
2023-01-20T08:35:27.223Z,35.40
2023-01-20T08:37:54.436Z,37.07
2023-01-20T08:40:21.926Z,32.37
2023-01-20T08:42:49.280Z,29.60
2023-01-20T08:45:16.672Z,32.77
2023-01-20T08:47:45.968Z,29.27
2023-01-20T08:50:14.468Z,35.67
2023-01-20T08:52:42.082Z,31.30
2023-01-20T08:55:09.735Z,32.33
2023-01-20T08:57:37.025Z,28.57
2023-01-20T09:00:05.551Z,30.77
2023-01-20T09:02:32.857Z,25.63
2023-01-20T09:05:00.174Z,29.20
2023-01-20T09:07:27.338Z,27.93
2023-01-20T09:09:54.520Z,27.80
2023-01-20T09:12:21.636Z,26.43
2023-01-20T09:14:48.807Z,28.13
2023-01-20T09:17:16.015Z,32.93
2023-01-20T09:19:43.128Z,32.10
2023-01-20T09:22:10.270Z,31.40
2023-01-20T09:24:37.393Z,30.30
2023-01-20T09:27:04.514Z,24.23
2023-01-20T09:29:32.011Z,29.10
2023-01-20T09:31:59.398Z,26.47
2023-01-20T09:34:27.578Z,31.83
2023-01-20T09:36:55.554Z,30.20
2023-01-20T09:39:41.468Z,32.00
2023-01-20T09:42:33.552Z,29.20
2023-01-20T09:45:26.865Z,24.20
2023-01-20T09:47:59.113Z,27.77
2023-01-20T09:50:49.871Z,27.23
2023-01-20T09:53:32.726Z,27.27
2023-01-20T09:56:20.163Z,25.70
2023-01-20T09:58:52.105Z,27.73
2023-01-20T10:01:30.746Z,26.83
2023-01-20T10:04:04.837Z,24.80
2023-01-20T10:06:58.967Z,29.83
2023-01-20T10:09:33.633Z,28.43
2023-01-20T10:12:08.051Z,26.77
2023-01-20T10:14:41.158Z,31.77
2023-01-20T10:17:16.816Z,26.20
2023-01-20T10:19:48.923Z,27.30
2023-01-20T10:22:27.210Z,27.77
2023-01-20T10:24:59.096Z,25.40
2023-01-20T10:27:28.962Z,25.50
2023-01-20T10:30:16.629Z,28.40
2023-01-20T10:32:55.468Z,31.97
2023-01-20T10:35:35.966Z,27.47
2023-01-20T10:38:03.795Z,26.17
2023-01-20T10:40:42.134Z,31.67
2023-01-20T10:43:13.852Z,23.93
2023-01-20T10:45:49.995Z,22.73
2023-01-20T10:48:29.461Z,23.40
2023-01-20T10:50:58.468Z,23.80
2023-01-20T10:53:30.299Z,22.43
2023-01-20T10:56:33.109Z,30.50
2023-01-20T10:59:03.463Z,24.93
2023-01-20T11:01:30.947Z,23.47
2023-01-20T11:03:58.158Z,18.13
2023-01-20T11:06:29.208Z,20.70
2023-01-20T11:08:57.457Z,24.70
2023-01-20T11:11:25.630Z,22.10
2023-01-20T11:13:53.458Z,25.23
2023-01-20T11:16:25.456Z,20.27
2023-01-20T11:18:58.793Z,23.47
2023-01-20T11:21:26.636Z,20.67
2023-01-20T11:23:57.592Z,20.20
2023-01-20T11:26:35.697Z,22.63
2023-01-20T11:29:11.603Z,27.03
2023-01-20T11:31:43.476Z,20.23
2023-01-20T11:34:19.661Z,22.63
2023-01-20T11:36:46.836Z,21.83
2023-01-20T11:39:28.017Z,26.00
2023-01-20T11:42:11.397Z,25.77
2023-01-20T11:44:44.612Z,18.47
2023-01-20T11:47:25.376Z,21.77
2023-01-20T11:50:04.921Z,14.97
2023-01-20T11:52:32.963Z,15.80
2023-01-20T11:55:23.482Z,22.73
2023-01-20T11:57:53.359Z,21.87
2023-01-20T12:00:20.466Z,15.13
2023-01-20T12:02:59.887Z,18.10
2023-01-20T12:05:35.402Z,23.63
2023-01-20T12:08:03.502Z,16.30
2023-01-20T12:10:33.487Z,18.83
2023-01-20T12:13:03.456Z,17.17
2023-01-20T12:15:33.023Z,23.10
2023-01-20T12:18:35.425Z,15.57
2023-01-20T12:21:04.259Z,17.93
2023-01-20T12:23:45.850Z,21.23
2023-01-20T12:26:18.100Z,14.77
2023-01-20T12:28:51.571Z,22.60
2023-01-20T12:31:20.340Z,15.90
2023-01-20T12:33:52.142Z,15.07
2023-01-20T12:36:31.631Z,14.33
2023-01-20T12:39:17.632Z,17.43
2023-01-20T12:41:53.898Z,17.03
2023-01-20T12:44:26.445Z,17.60
2023-01-20T12:46:58.548Z,13.90
2023-01-20T12:49:40.790Z,19.23
2023-01-20T12:52:18.860Z,12.80
2023-01-20T12:54:51.978Z,18.80
2023-01-20T12:57:26.183Z,22.00
2023-01-20T12:59:53.253Z,15.20
2023-01-20T13:02:20.430Z,18.20
2023-01-20T13:04:56.784Z,13.83
2023-01-20T13:07:57.153Z,14.80
2023-01-20T13:10:30.289Z,16.97
2023-01-20T13:13:03.415Z,12.23
2023-01-20T13:15:36.469Z,12.60
2023-01-20T13:18:12.513Z,16.40
2023-01-20T13:20:42.103Z,10.30
2023-01-20T13:23:16.004Z,17.77
2023-01-20T13:25:44.917Z,11.83
2023-01-20T13:28:20.287Z,15.13
2023-01-20T13:30:51.521Z,11.50
2023-01-20T13:33:27.633Z,11.17
2023-01-20T13:35:55.249Z,12.07
2023-01-20T13:38:30.597Z,10.07
2023-01-20T13:41:00.369Z,10.83
2023-01-20T13:43:30.243Z,12.93
2023-01-20T13:46:03.595Z,13.07
2023-01-20T13:48:31.866Z,11.47
2023-01-20T13:51:19.251Z,13.40
2023-01-20T13:53:46.428Z,11.30
2023-01-20T13:56:27.142Z,13.87
2023-01-20T13:59:00.772Z,10.60
2023-01-20T14:01:28.741Z,15.53
2023-01-20T14:04:14.706Z,11.50
2023-01-20T14:06:49.019Z,15.30
2023-01-20T14:09:24.094Z,12.60
2023-01-20T14:11:52.323Z,11.57
2023-01-20T14:14:20.748Z,13.10
2023-01-20T14:16:47.998Z,13.33
2023-01-20T14:19:34.636Z,13.83
2023-01-20T14:22:03.157Z,15.40
2023-01-20T14:24:34.737Z,11.23
2023-01-20T14:27:08.226Z,12.47
2023-01-20T14:29:35.493Z,18.57
2023-01-20T14:32:02.787Z,18.43
2023-01-20T14:34:32.544Z,10.97
2023-01-20T14:37:00.747Z,16.53
2023-01-20T14:39:28.780Z,11.77
2023-01-20T14:42:00.996Z,13.53
2023-01-20T14:44:29.452Z,17.77
2023-01-20T14:46:58.335Z,14.53
2023-01-20T14:49:29.291Z,12.00
2023-01-20T14:51:56.551Z,14.67
2023-01-20T14:54:32.618Z,15.90
2023-01-20T14:57:00.356Z,21.77
2023-01-20T14:59:27.578Z,11.57
2023-01-20T15:01:56.062Z,18.60
2023-01-20T15:04:23.744Z,13.47
2023-01-20T15:06:54.868Z,13.20
2023-01-20T15:09:26.462Z,13.17
2023-01-20T15:12:13.553Z,12.20
2023-01-20T15:14:41.091Z,14.03
2023-01-20T15:17:09.991Z,11.17
2023-01-20T15:19:37.196Z,13.80
2023-01-20T15:22:21.207Z,11.07
2023-01-20T15:24:49.529Z,13.20
2023-01-20T15:27:24.965Z,9.80
2023-01-20T15:30:01.025Z,26.70
2023-01-20T15:32:28.208Z,12.97
2023-01-20T15:34:55.319Z,10.70
2023-01-20T15:37:23.922Z,13.40
2023-01-20T15:39:51.043Z,14.60
2023-01-20T15:42:19.021Z,13.43
2023-01-20T15:44:46.399Z,14.93
2023-01-20T15:47:20.039Z,12.87
2023-01-20T15:49:47.380Z,11.80
2023-01-20T15:52:14.697Z,11.27
2023-01-20T15:54:41.809Z,12.83
2023-01-20T15:57:15.558Z,12.33
2023-01-20T15:59:45.374Z,13.10
2023-01-20T16:02:22.548Z,10.73
2023-01-20T16:04:52.255Z,10.90
2023-01-20T16:07:20.584Z,8.50
2023-01-20T16:09:47.684Z,10.00
2023-01-20T16:12:15.437Z,10.80
2023-01-20T16:14:42.676Z,19.43
2023-01-20T16:17:13.173Z,11.97
2023-01-20T16:19:40.980Z,11.67
2023-01-20T16:22:08.773Z,13.67
2023-01-20T16:24:35.929Z,11.50
2023-01-20T16:27:03.948Z,12.33
2023-01-20T16:29:31.848Z,13.83
2023-01-20T16:31:59.029Z,12.47
2023-01-20T16:34:26.139Z,12.07
2023-01-20T16:36:53.277Z,10.43
2023-01-20T16:39:20.569Z,9.93
2023-01-20T16:41:51.511Z,11.07
2023-01-20T16:44:18.689Z,17.87
2023-01-20T16:46:47.419Z,15.60
2023-01-20T16:49:14.587Z,12.53
2023-01-20T16:51:42.011Z,13.70
2023-01-20T16:54:09.992Z,13.93
2023-01-20T16:56:37.152Z,16.17
2023-01-20T16:59:05.730Z,12.90
2023-01-20T17:01:33.141Z,15.57
2023-01-20T17:04:01.562Z,15.83
2023-01-20T17:06:33.603Z,12.80
2023-01-20T17:09:01.628Z,11.27
2023-01-20T17:11:30.093Z,13.33
2023-01-20T17:13:57.728Z,14.13
2023-01-20T17:16:28.070Z,17.20
2023-01-20T17:18:55.931Z,14.20
2023-01-20T17:21:23.655Z,16.17
2023-01-20T17:24:09.091Z,14.90
2023-01-20T17:26:37.796Z,14.53
2023-01-20T17:29:06.825Z,12.53
2023-01-20T17:31:36.481Z,16.37
2023-01-20T17:34:04.614Z,13.20
2023-01-20T17:36:34.542Z,14.93
2023-01-20T17:39:02.614Z,14.20
2023-01-20T17:41:29.748Z,15.03
2023-01-20T17:43:56.882Z,15.20
2023-01-20T17:46:26.011Z,18.03
2023-01-20T17:48:53.150Z,17.70
2023-01-20T17:51:21.550Z,19.17
2023-01-20T17:53:48.969Z,17.93
2023-01-20T17:56:17.069Z,19.90
2023-01-20T17:58:44.939Z,19.63
2023-01-20T18:01:12.091Z,18.67
2023-01-20T18:03:40.779Z,15.63
2023-01-20T18:06:10.763Z,16.53
2023-01-20T18:08:41.006Z,22.23
2023-01-20T18:11:09.621Z,14.20
2023-01-20T18:13:37.323Z,14.03
2023-01-20T18:16:08.479Z,15.87
2023-01-20T18:18:35.645Z,15.57
2023-01-20T18:21:10.110Z,17.17
2023-01-20T18:23:39.123Z,20.83
2023-01-20T18:26:07.076Z,17.23
2023-01-20T18:28:34.723Z,16.80
2023-01-20T18:31:07.950Z,16.33
2023-01-20T18:33:39.991Z,19.67
2023-01-20T18:36:08.813Z,16.93
2023-01-20T18:38:36.359Z,17.77
2023-01-20T18:41:03.923Z,17.57
2023-01-20T18:43:31.234Z,14.87
2023-01-20T18:45:58.419Z,16.43
2023-01-20T18:48:25.668Z,20.53
2023-01-20T18:50:53.100Z,17.50
2023-01-20T18:53:20.284Z,23.83
2023-01-20T18:55:47.913Z,18.80
2023-01-20T18:58:17.400Z,23.77
2023-01-20T19:00:44.582Z,26.23
2023-01-20T19:03:11.768Z,23.67
2023-01-20T19:05:38.973Z,18.57
2023-01-20T19:08:06.337Z,16.60
2023-01-20T19:10:33.607Z,22.00
2023-01-20T19:13:00.690Z,24.03
2023-01-20T19:15:27.939Z,21.17
2023-01-20T19:17:55.377Z,22.57
2023-01-20T19:20:22.520Z,25.63
2023-01-20T19:22:49.673Z,27.80
2023-01-20T19:25:16.880Z,32.07
2023-01-20T19:27:44.009Z,24.43
2023-01-20T19:30:11.662Z,28.67
2023-01-20T19:32:42.344Z,33.00
2023-01-20T19:35:09.813Z,28.83
2023-01-20T19:37:38.443Z,23.47
2023-01-20T19:40:05.994Z,31.70
2023-01-20T19:42:33.141Z,27.87
2023-01-20T19:45:00.275Z,24.33
2023-01-20T19:47:30.653Z,25.73
2023-01-20T19:49:57.946Z,26.00
2023-01-20T19:52:25.122Z,30.33
2023-01-20T19:54:52.366Z,27.60
2023-01-20T19:57:19.502Z,24.77
2023-01-20T19:59:46.612Z,26.37
2023-01-20T20:02:13.753Z,27.87
2023-01-20T20:04:40.835Z,28.57
2023-01-20T20:07:08.951Z,26.07
2023-01-20T20:09:37.190Z,30.40
2023-01-20T20:12:07.764Z,27.00
2023-01-20T20:14:35.303Z,27.97
2023-01-20T20:17:04.218Z,27.40
2023-01-20T20:19:31.379Z,30.40
2023-01-20T20:21:58.835Z,28.60
2023-01-20T20:24:25.970Z,24.13
2023-01-20T20:26:53.247Z,24.93
2023-01-20T20:29:20.461Z,24.93
2023-01-20T20:31:48.011Z,24.70
2023-01-20T20:34:16.748Z,29.80
2023-01-20T20:36:44.063Z,22.83
2023-01-20T20:39:14.942Z,27.93
2023-01-20T20:41:42.998Z,27.73
2023-01-20T20:44:11.122Z,27.93
2023-01-20T20:46:38.616Z,27.57
2023-01-20T20:49:05.753Z,31.90
2023-01-20T20:51:34.142Z,32.57
2023-01-20T20:54:02.428Z,27.00
2023-01-20T20:56:32.848Z,34.53
2023-01-20T20:59:02.477Z,33.10
2023-01-20T21:01:31.246Z,31.00
2023-01-20T21:04:00.475Z,33.23
2023-01-20T21:06:28.500Z,35.00
2023-01-20T21:08:56.002Z,30.13
2023-01-20T21:11:24.907Z,32.13
2023-01-20T21:13:52.659Z,41.13
2023-01-20T21:16:22.117Z,39.63
2023-01-20T21:18:50.104Z,48.80
2023-01-20T21:21:17.475Z,40.30
2023-01-20T21:23:48.275Z,32.80
2023-01-20T21:26:15.414Z,34.13
2023-01-20T21:28:45.630Z,50.90
2023-01-20T21:31:14.509Z,40.53
2023-01-20T21:33:42.320Z,39.20
2023-01-20T21:36:12.210Z,38.73
2023-01-20T21:38:46.675Z,34.07
2023-01-20T21:41:14.900Z,39.23
2023-01-20T21:44:02.332Z,39.97
2023-01-20T21:46:30.514Z,35.37
2023-01-20T21:49:16.530Z,44.67
2023-01-20T21:52:02.249Z,39.07
2023-01-20T21:54:29.969Z,37.20
2023-01-20T21:56:57.140Z,39.50
2023-01-20T21:59:24.479Z,60.10
2023-01-20T22:01:51.959Z,42.90
2023-01-20T22:04:19.358Z,42.07
2023-01-20T22:06:46.581Z,42.73
2023-01-20T22:09:13.823Z,40.00
2023-01-20T22:11:40.925Z,42.53
2023-01-20T22:14:08.262Z,35.63
2023-01-20T22:16:35.435Z,40.03
2023-01-20T22:19:02.803Z,37.60
2023-01-20T22:21:29.953Z,39.30
2023-01-20T22:23:57.167Z,50.87
2023-01-20T22:26:24.291Z,41.80
2023-01-20T22:28:51.423Z,49.07
2023-01-20T22:31:24.001Z,42.70
2023-01-20T22:33:54.860Z,45.90
2023-01-20T22:36:22.679Z,39.40
2023-01-20T22:38:50.400Z,35.10
2023-01-20T22:41:17.807Z,50.10
2023-01-20T22:43:45.017Z,46.93
2023-01-20T22:46:14.053Z,39.33
2023-01-20T22:48:41.878Z,40.23
2023-01-20T22:51:10.989Z,38.90
2023-01-20T22:53:39.212Z,39.63
2023-01-20T22:56:12.812Z,52.63
2023-01-20T22:58:40.259Z,40.97
2023-01-20T23:01:12.816Z,42.80
2023-01-20T23:03:40.005Z,38.90
2023-01-20T23:06:07.205Z,42.57
2023-01-20T23:08:34.345Z,46.87
2023-01-20T23:11:02.771Z,43.57
2023-01-20T23:13:29.997Z,35.40
2023-01-20T23:15:57.455Z,42.43
2023-01-20T23:18:25.345Z,38.57
2023-01-20T23:20:54.217Z,41.97
2023-01-20T23:23:21.863Z,43.60
2023-01-20T23:25:49.047Z,49.77
2023-01-20T23:28:16.626Z,39.20
2023-01-20T23:30:43.982Z,46.07
2023-01-20T23:33:11.206Z,38.67
2023-01-20T23:35:39.015Z,39.53
2023-01-20T23:38:09.133Z,43.87
2023-01-20T23:40:36.559Z,36.63
2023-01-20T23:43:03.706Z,43.63
2023-01-20T23:45:30.995Z,38.47
2023-01-20T23:47:58.155Z,39.30
2023-01-20T23:50:24.972Z,44.07
2023-01-20T23:52:51.665Z,46.87
2023-01-20T23:55:18.429Z,44.13
2023-01-20T23:57:45.175Z,45.00
